createdAt,value
2023-04-25T16:02:04.917Z,8.80
2023-04-25T16:03:37.127Z,9.80
2023-04-25T16:05:09.636Z,9.20
2023-04-25T16:06:42.756Z,7.60
2023-04-25T16:08:14.702Z,7.20
2023-04-25T16:09:47.086Z,10.00
2023-04-25T16:11:19.739Z,7.40
2023-04-25T16:12:51.955Z,7.60
2023-04-25T16:14:24.009Z,8.60
2023-04-25T16:15:56.147Z,8.60
2023-04-25T16:17:30.978Z,8.00
2023-04-25T16:19:03.282Z,8.40
2023-04-25T16:20:35.617Z,10.80
2023-04-25T16:22:09.670Z,9.40
2023-04-25T16:23:41.853Z,7.20
2023-04-25T16:25:14.170Z,6.20
2023-04-25T16:26:46.449Z,8.20
2023-04-25T16:28:18.437Z,12.80
2023-04-25T16:29:51.611Z,12.20
2023-04-25T16:31:23.780Z,5.40
2023-04-25T16:32:57.653Z,9.40
2023-04-25T16:34:29.963Z,9.00
2023-04-25T16:36:02.325Z,7.60
2023-04-25T16:37:34.340Z,8.40
2023-04-25T16:39:08.617Z,9.00
2023-04-25T16:40:40.598Z,9.20
2023-04-25T16:42:12.725Z,9.80
2023-04-25T16:43:45.013Z,11.00
2023-04-25T16:45:18.001Z,7.00
2023-04-25T16:46:50.359Z,11.00
2023-04-25T16:48:24.600Z,11.40
2023-04-25T16:49:56.763Z,10.20
2023-04-25T16:51:29.157Z,10.80
2023-04-25T16:53:01.114Z,12.00
2023-04-25T16:54:32.957Z,10.20
2023-04-25T16:56:05.029Z,11.20
2023-04-25T16:57:37.798Z,9.60
2023-04-25T16:59:09.888Z,11.20
2023-04-25T17:00:42.014Z,11.00
2023-04-25T17:02:14.703Z,7.80
2023-04-25T17:03:47.914Z,9.00
2023-04-25T17:05:20.141Z,25.00
2023-04-25T17:06:52.028Z,298.50
2023-04-25T17:08:24.409Z,70.50
2023-04-25T17:09:56.681Z,70.00
2023-04-25T17:11:30.086Z,95.00
2023-04-25T17:13:02.813Z,93.50
2023-04-25T17:14:36.167Z,80.00
2023-04-25T17:16:08.386Z,92.50
2023-04-25T17:17:40.579Z,95.80
2023-04-25T17:19:12.877Z,93.75
2023-04-25T17:20:44.792Z,102.20
2023-04-25T17:22:16.748Z,102.20
2023-04-25T17:23:48.938Z,107.20
2023-04-25T17:25:20.822Z,111.75
2023-04-25T17:26:52.811Z,124.00
2023-04-25T17:28:24.802Z,130.75
2023-04-25T17:29:57.369Z,115.25
2023-04-25T17:31:29.294Z,126.75
2023-04-25T17:33:01.328Z,127.50
2023-04-25T17:34:33.248Z,123.75
2023-04-25T17:36:05.584Z,143.25
2023-04-25T17:37:38.493Z,137.50
2023-04-25T17:39:11.285Z,142.00
2023-04-25T17:40:43.451Z,135.75
2023-04-25T17:42:15.611Z,153.00
2023-04-25T17:43:47.804Z,153.50
2023-04-25T17:45:19.851Z,167.75
2023-04-25T17:46:51.978Z,157.50
2023-04-25T17:48:24.243Z,171.75
2023-04-25T17:49:56.803Z,169.75
2023-04-25T17:51:28.928Z,166.00
2023-04-25T17:53:03.692Z,173.50
2023-04-25T17:54:36.075Z,170.75
2023-04-25T17:56:23.419Z,177.25
2023-04-25T17:57:58.787Z,169.25
2023-04-25T17:59:31.169Z,162.75
2023-04-25T18:01:05.529Z,160.75
2023-04-25T18:02:37.871Z,161.50
2023-04-25T18:04:10.009Z,165.00
2023-04-25T18:05:42.644Z,155.00
2023-04-25T18:07:14.625Z,161.75
2023-04-25T18:08:47.359Z,172.75
2023-04-25T18:10:19.440Z,153.25
2023-04-25T18:11:54.971Z,150.75
2023-04-25T18:13:26.997Z,183.00
2023-04-25T18:14:59.165Z,172.75
2023-04-25T18:16:31.671Z,172.00
2023-04-25T18:18:09.848Z,156.00
2023-04-25T18:19:42.212Z,136.50
2023-04-25T18:21:14.080Z,153.50
2023-04-25T18:22:47.131Z,138.00
2023-04-25T18:24:19.846Z,136.50
2023-04-25T18:25:52.187Z,126.25
2023-04-25T18:27:24.481Z,133.75
2023-04-25T18:28:56.357Z,115.00
2023-04-25T18:30:28.351Z,119.75
2023-04-25T18:32:00.438Z,123.75
2023-04-25T18:33:32.410Z,133.00
2023-04-25T18:35:04.969Z,129.00
2023-04-25T18:36:37.406Z,127.00
2023-04-25T18:38:09.285Z,126.25
2023-04-25T18:39:41.611Z,141.00
2023-04-25T18:41:41.558Z,138.75
2023-04-25T18:43:05.728Z,139.25
2023-04-25T18:44:40.482Z,129.75
2023-04-25T18:46:12.584Z,147.50
2023-04-25T18:47:46.819Z,144.75
2023-04-25T18:49:19.425Z,163.50
2023-04-25T18:50:51.865Z,155.25
2023-04-25T18:52:23.797Z,163.50
2023-04-25T18:53:56.278Z,163.25
2023-04-25T18:55:28.693Z,164.50
2023-04-25T18:57:01.359Z,163.50
2023-04-25T18:58:33.831Z,156.25
2023-04-25T19:00:07.137Z,164.25
2023-04-25T19:01:39.044Z,174.50
2023-04-25T19:03:11.123Z,172.00
2023-04-25T19:04:43.609Z,158.75
2023-04-25T19:06:15.575Z,165.00
2023-04-25T19:07:47.553Z,163.50
2023-04-25T19:09:19.559Z,168.75
2023-04-25T19:10:53.764Z,178.75
2023-04-25T19:12:25.891Z,165.50
2023-04-25T19:13:57.829Z,158.25
2023-04-25T19:15:29.816Z,168.75
2023-04-25T19:17:02.061Z,174.50
2023-04-25T19:18:34.252Z,171.00
2023-04-25T19:20:07.177Z,168.25
2023-04-25T19:21:39.055Z,165.00
2023-04-25T19:23:11.443Z,169.00
2023-04-25T19:24:43.382Z,156.25
2023-04-25T19:26:15.281Z,176.00
2023-04-25T19:27:47.377Z,173.75
2023-04-25T19:29:19.296Z,166.25
2023-04-25T19:30:52.428Z,161.25
2023-04-25T19:32:26.615Z,168.00
2023-04-25T19:33:59.230Z,166.50
2023-04-25T19:35:32.913Z,158.00
2023-04-25T19:37:04.763Z,160.00
2023-04-25T19:38:36.731Z,156.00
2023-04-25T19:40:09.212Z,158.75
2023-04-25T19:41:41.132Z,148.75
2023-04-25T19:43:13.116Z,166.50
2023-04-25T19:44:45.555Z,153.25
2023-04-25T19:46:17.506Z,138.75
2023-04-25T19:47:49.544Z,146.00
2023-04-25T19:49:21.606Z,142.50
2023-04-25T19:50:53.641Z,147.50
2023-04-25T19:52:25.732Z,149.50
2023-04-25T19:53:57.699Z,149.25
2023-04-25T19:55:29.546Z,137.75
2023-04-25T19:57:02.095Z,156.25
2023-04-25T19:58:34.886Z,160.75
2023-04-25T20:00:14.815Z,140.00
2023-04-25T20:01:46.897Z,130.75
2023-04-25T20:03:19.298Z,128.00
2023-04-25T20:04:51.332Z,135.50
2023-04-25T20:06:23.260Z,132.50
2023-04-25T20:07:55.129Z,134.25
2023-04-25T20:09:27.210Z,132.75
2023-04-25T20:10:59.077Z,132.50
2023-04-25T20:12:31.077Z,137.25
2023-04-25T20:14:02.960Z,134.75
2023-04-25T20:15:34.878Z,140.00
2023-04-25T20:17:06.800Z,135.50
2023-04-25T20:18:39.693Z,137.25
2023-04-25T20:20:12.133Z,136.00
2023-04-25T20:21:44.071Z,141.50
2023-04-25T20:23:16.041Z,140.00
2023-04-25T20:24:48.234Z,130.00
2023-04-25T20:26:22.536Z,128.50
2023-04-25T20:27:54.693Z,128.00
2023-04-25T20:29:26.627Z,126.00
2023-04-25T20:30:59.087Z,134.75
2023-04-25T20:32:34.470Z,127.25
2023-04-25T20:34:06.510Z,146.00
2023-04-25T20:35:38.374Z,139.50
2023-04-25T20:37:10.342Z,129.25
2023-04-25T20:38:42.190Z,123.25
2023-04-25T20:40:14.108Z,123.50
2023-04-25T20:41:45.998Z,113.00
2023-04-25T20:43:17.910Z,115.50
2023-04-25T20:44:49.913Z,109.75
2023-04-25T20:46:22.354Z,108.50
2023-04-25T20:47:54.464Z,113.40
2023-04-25T20:49:26.730Z,105.00
2023-04-25T20:51:00.598Z,104.00
2023-04-25T20:52:32.769Z,102.20
2023-04-25T20:54:04.623Z,92.40
2023-04-25T20:55:36.798Z,95.50
2023-04-25T20:57:08.730Z,90.50
2023-04-25T20:58:41.332Z,91.25
2023-04-25T21:00:26.200Z,90.75
2023-04-25T21:01:59.154Z,89.25
2023-04-25T21:03:31.236Z,91.75
2023-04-25T21:05:03.236Z,77.25
2023-04-25T21:06:35.186Z,85.75
2023-04-25T21:08:07.220Z,80.00
2023-04-25T21:09:40.397Z,79.00
2023-04-25T21:11:12.813Z,79.75
2023-04-25T21:12:48.219Z,76.25
2023-04-25T21:14:20.355Z,71.50
2023-04-25T21:15:52.205Z,58.25
2023-04-25T21:17:24.197Z,70.00
2023-04-25T21:18:56.130Z,66.50
2023-04-25T21:20:28.087Z,69.50
2023-04-25T21:22:00.233Z,68.50
2023-04-25T21:23:32.330Z,64.00
2023-04-25T21:25:06.446Z,59.50
2023-04-25T21:26:38.438Z,58.75
2023-04-25T21:28:10.294Z,50.75
2023-04-25T21:29:42.220Z,55.50
2023-04-25T21:31:14.800Z,54.00
2023-04-25T21:32:47.018Z,52.00
2023-04-25T21:34:18.911Z,50.00
2023-04-25T21:35:50.796Z,50.60
2023-04-25T21:37:22.859Z,52.25
2023-04-25T21:38:55.184Z,50.80
2023-04-25T21:40:27.312Z,48.60
2023-04-25T21:41:59.160Z,47.80
2023-04-25T21:43:31.046Z,46.40
2023-04-25T21:45:03.737Z,45.00
2023-04-25T21:46:35.675Z,46.40
2023-04-25T21:48:07.866Z,45.40
2023-04-25T21:49:39.923Z,46.20
2023-04-25T21:51:12.243Z,46.20
2023-04-25T21:52:44.124Z,48.20
2023-04-25T21:54:16.071Z,47.60
2023-04-25T21:55:47.920Z,47.80
2023-04-25T21:57:20.174Z,43.00
2023-04-25T21:58:52.249Z,41.60
2023-04-25T22:00:28.045Z,43.00
2023-04-25T22:01:59.955Z,40.00
2023-04-25T22:03:32.702Z,47.20
2023-04-25T22:05:04.946Z,63.25
2023-04-25T22:06:36.912Z,78.00
2023-04-25T22:08:08.799Z,71.50
2023-04-25T22:09:51.266Z,79.00
2023-04-25T22:11:28.696Z,79.25
2023-04-25T22:13:00.602Z,71.75
2023-04-25T22:14:32.475Z,68.25
2023-04-25T22:16:04.804Z,64.50
2023-04-25T22:17:37.165Z,96.25
2023-04-25T22:19:09.655Z,84.00
2023-04-25T22:20:41.570Z,85.50
2023-04-25T22:22:13.436Z,83.00
2023-04-25T22:23:45.318Z,95.60
2023-04-25T22:25:17.283Z,103.20
2023-04-25T22:26:49.555Z,116.50
2023-04-25T22:28:21.778Z,101.40
2023-04-25T22:29:54.195Z,95.20
2023-04-25T22:31:27.238Z,105.20
2023-04-25T22:32:59.149Z,106.40
2023-04-25T22:34:31.198Z,115.00
